sensor_id;sensor_type;location;lat;lon;timestamp;P1;durP1;ratioP1;P2;durP2;ratioP2
36351;SDS011;22382;44.768;17.206;2023-04-30T00:01:26;11.52;;;8.80;;
36351;SDS011;22382;44.768;17.206;2023-04-30T00:03:53;17.30;;;9.52;;
36351;SDS011;22382;44.768;17.206;2023-04-30T00:06:21;13.27;;;8.00;;
36351;SDS011;22382;44.768;17.206;2023-04-30T00:08:50;8.38;;;5.50;;
36351;SDS011;22382;44.768;17.206;2023-04-30T00:11:17;12.38;;;7.32;;
36351;SDS011;22382;44.768;17.206;2023-04-30T00:13:44;11.57;;;6.68;;
36351;SDS011;22382;44.768;17.206;2023-04-30T00:16:11;7.38;;;4.78;;
36351;SDS011;22382;44.768;17.206;2023-04-30T00:18:38;6.80;;;5.20;;
36351;SDS011;22382;44.768;17.206;2023-04-30T00:21:06;8.38;;;5.05;;
36351;SDS011;22382;44.768;17.206;2023-04-30T00:23:33;8.10;;;4.65;;
36351;SDS011;22382;44.768;17.206;2023-04-30T00:26:00;5.95;;;4.45;;
36351;SDS011;22382;44.768;17.206;2023-04-30T00:28:28;6.97;;;5.00;;
36351;SDS011;22382;44.768;17.206;2023-04-30T00:30:55;7.38;;;5.10;;
36351;SDS011;22382;44.768;17.206;2023-04-30T00:33:22;25.35;;;10.48;;
36351;SDS011;22382;44.768;17.206;2023-04-30T00:35:49;12.38;;;7.53;;
36351;SDS011;22382;44.768;17.206;2023-04-30T00:38:16;12.00;;;6.90;;
36351;SDS011;22382;44.768;17.206;2023-04-30T00:40:43;11.55;;;6.10;;
36351;SDS011;22382;44.768;17.206;2023-04-30T00:43:12;9.55;;;6.40;;
36351;SDS011;22382;44.768;17.206;2023-04-30T00:45:41;9.57;;;5.80;;
36351;SDS011;22382;44.768;17.206;2023-04-30T00:48:14;9.45;;;6.07;;
36351;SDS011;22382;44.768;17.206;2023-04-30T00:50:48;10.27;;;5.97;;
36351;SDS011;22382;44.768;17.206;2023-04-30T00:53:20;8.85;;;5.35;;
36351;SDS011;22382;44.768;17.206;2023-04-30T00:55:52;9.30;;;5.30;;
36351;SDS011;22382;44.768;17.206;2023-04-30T00:58:24;9.18;;;4.82;;
36351;SDS011;22382;44.768;17.206;2023-04-30T01:00:57;9.05;;;5.63;;
36351;SDS011;22382;44.768;17.206;2023-04-30T01:03:30;9.13;;;5.10;;
36351;SDS011;22382;44.768;17.206;2023-04-30T01:06:04;7.18;;;4.93;;
36351;SDS011;22382;44.768;17.206;2023-04-30T01:08:32;7.53;;;5.05;;
36351;SDS011;22382;44.768;17.206;2023-04-30T01:17:12;7.15;;;5.10;;
36351;SDS011;22382;44.768;17.206;2023-04-30T01:19:47;7.05;;;4.78;;
36351;SDS011;22382;44.768;17.206;2023-04-30T01:25:11;8.60;;;5.05;;
36351;SDS011;22382;44.768;17.206;2023-04-30T01:28:14;7.05;;;4.35;;
36351;SDS011;22382;44.768;17.206;2023-04-30T01:30:45;5.97;;;4.10;;
36351;SDS011;22382;44.768;17.206;2023-04-30T01:33:19;8.38;;;3.95;;
36351;SDS011;22382;44.768;17.206;2023-04-30T01:46:27;5.30;;;4.28;;
36351;SDS011;22382;44.768;17.206;2023-04-30T01:51:42;5.63;;;4.40;;
36351;SDS011;22382;44.768;17.206;2023-04-30T01:54:25;6.60;;;4.57;;
36351;SDS011;22382;44.768;17.206;2023-04-30T01:57:03;6.75;;;4.72;;
36351;SDS011;22382;44.768;17.206;2023-04-30T01:59:37;8.73;;;4.50;;
36351;SDS011;22382;44.768;17.206;2023-04-30T02:02:06;6.32;;;4.63;;
36351;SDS011;22382;44.768;17.206;2023-04-30T02:04:33;7.85;;;4.90;;
36351;SDS011;22382;44.768;17.206;2023-04-30T02:07:00;5.90;;;4.35;;
36351;SDS011;22382;44.768;17.206;2023-04-30T02:09:27;8.70;;;4.95;;
36351;SDS011;22382;44.768;17.206;2023-04-30T02:11:55;6.75;;;4.68;;
36351;SDS011;22382;44.768;17.206;2023-04-30T02:14:23;6.43;;;4.32;;
36351;SDS011;22382;44.768;17.206;2023-04-30T02:16:50;6.25;;;4.72;;
36351;SDS011;22382;44.768;17.206;2023-04-30T02:19:17;8.68;;;5.15;;
36351;SDS011;22382;44.768;17.206;2023-04-30T02:21:45;7.63;;;4.50;;
36351;SDS011;22382;44.768;17.206;2023-04-30T02:24:12;8.65;;;4.85;;
36351;SDS011;22382;44.768;17.206;2023-04-30T02:26:39;8.27;;;4.55;;
36351;SDS011;22382;44.768;17.206;2023-04-30T02:29:06;5.78;;;4.43;;
36351;SDS011;22382;44.768;17.206;2023-04-30T02:31:33;6.35;;;3.88;;
36351;SDS011;22382;44.768;17.206;2023-04-30T02:34:00;8.48;;;4.53;;
36351;SDS011;22382;44.768;17.206;2023-04-30T02:36:27;7.78;;;4.53;;
36351;SDS011;22382;44.768;17.206;2023-04-30T02:38:55;5.35;;;3.67;;
36351;SDS011;22382;44.768;17.206;2023-04-30T02:41:22;7.20;;;3.75;;
36351;SDS011;22382;44.768;17.206;2023-04-30T02:43:49;4.57;;;3.70;;
36351;SDS011;22382;44.768;17.206;2023-04-30T02:46:17;5.78;;;3.78;;
36351;SDS011;22382;44.768;17.206;2023-04-30T02:48:44;5.35;;;3.60;;
36351;SDS011;22382;44.768;17.206;2023-04-30T02:51:11;7.55;;;3.90;;
36351;SDS011;22382;44.768;17.206;2023-04-30T02:53:38;6.22;;;4.15;;
36351;SDS011;22382;44.768;17.206;2023-04-30T02:56:06;6.60;;;3.90;;
36351;SDS011;22382;44.768;17.206;2023-04-30T02:58:33;6.07;;;3.95;;
36351;SDS011;22382;44.768;17.206;2023-04-30T03:01:01;9.30;;;4.15;;
36351;SDS011;22382;44.768;17.206;2023-04-30T03:03:28;5.60;;;3.53;;
36351;SDS011;22382;44.768;17.206;2023-04-30T03:05:55;5.00;;;3.47;;
36351;SDS011;22382;44.768;17.206;2023-04-30T03:08:25;6.22;;;3.95;;
36351;SDS011;22382;44.768;17.206;2023-04-30T03:10:52;7.20;;;4.45;;
36351;SDS011;22382;44.768;17.206;2023-04-30T03:13:19;5.63;;;3.97;;
36351;SDS011;22382;44.768;17.206;2023-04-30T03:15:46;5.32;;;3.92;;
36351;SDS011;22382;44.768;17.206;2023-04-30T03:18:13;5.32;;;3.90;;
36351;SDS011;22382;44.768;17.206;2023-04-30T03:20:41;4.72;;;3.67;;
36351;SDS011;22382;44.768;17.206;2023-04-30T03:23:08;5.55;;;3.50;;
36351;SDS011;22382;44.768;17.206;2023-04-30T03:25:35;7.53;;;3.83;;
36351;SDS011;22382;44.768;17.206;2023-04-30T03:28:02;6.25;;;4.07;;
36351;SDS011;22382;44.768;17.206;2023-04-30T03:30:30;5.72;;;4.07;;
36351;SDS011;22382;44.768;17.206;2023-04-30T03:32:57;6.25;;;3.58;;
36351;SDS011;22382;44.768;17.206;2023-04-30T03:35:24;5.68;;;3.60;;
36351;SDS011;22382;44.768;17.206;2023-04-30T03:37:51;5.05;;;3.17;;
36351;SDS011;22382;44.768;17.206;2023-04-30T03:40:18;4.45;;;3.30;;
36351;SDS011;22382;44.768;17.206;2023-04-30T03:42:46;5.97;;;3.42;;
36351;SDS011;22382;44.768;17.206;2023-04-30T03:45:16;5.80;;;3.72;;
36351;SDS011;22382;44.768;17.206;2023-04-30T03:47:43;5.35;;;4.00;;
36351;SDS011;22382;44.768;17.206;2023-04-30T03:50:10;6.03;;;3.85;;
36351;SDS011;22382;44.768;17.206;2023-04-30T03:52:38;7.05;;;3.72;;
36351;SDS011;22382;44.768;17.206;2023-04-30T03:55:05;5.75;;;3.60;;
36351;SDS011;22382;44.768;17.206;2023-04-30T03:57:32;5.32;;;3.55;;
36351;SDS011;22382;44.768;17.206;2023-04-30T04:00:00;4.75;;;3.67;;
36351;SDS011;22382;44.768;17.206;2023-04-30T04:02:27;5.30;;;3.55;;
36351;SDS011;22382;44.768;17.206;2023-04-30T04:04:57;5.28;;;3.22;;
36351;SDS011;22382;44.768;17.206;2023-04-30T04:07:24;5.82;;;3.45;;
36351;SDS011;22382;44.768;17.206;2023-04-30T04:09:51;5.75;;;3.75;;
36351;SDS011;22382;44.768;17.206;2023-04-30T04:12:19;6.70;;;3.65;;
36351;SDS011;22382;44.768;17.206;2023-04-30T04:14:47;5.88;;;4.10;;
36351;SDS011;22382;44.768;17.206;2023-04-30T04:17:14;6.93;;;3.80;;
36351;SDS011;22382;44.768;17.206;2023-04-30T04:19:41;5.85;;;4.13;;
36351;SDS011;22382;44.768;17.206;2023-04-30T04:22:08;4.85;;;3.30;;
36351;SDS011;22382;44.768;17.206;2023-04-30T04:24:35;7.50;;;4.00;;
36351;SDS011;22382;44.768;17.206;2023-04-30T04:27:03;4.47;;;3.88;;
36351;SDS011;22382;44.768;17.206;2023-04-30T04:29:31;5.45;;;3.70;;
36351;SDS011;22382;44.768;17.206;2023-04-30T04:31:58;3.70;;;3.22;;
36351;SDS011;22382;44.768;17.206;2023-04-30T04:34:30;4.82;;;3.83;;
36351;SDS011;22382;44.768;17.206;2023-04-30T04:36:58;6.60;;;3.80;;
36351;SDS011;22382;44.768;17.206;2023-04-30T04:39:25;4.25;;;3.40;;
36351;SDS011;22382;44.768;17.206;2023-04-30T04:41:53;5.40;;;3.42;;
36351;SDS011;22382;44.768;17.206;2023-04-30T04:44:20;6.53;;;3.67;;
36351;SDS011;22382;44.768;17.206;2023-04-30T04:46:48;5.65;;;3.15;;
36351;SDS011;22382;44.768;17.206;2023-04-30T04:49:19;5.93;;;3.88;;
36351;SDS011;22382;44.768;17.206;2023-04-30T04:51:46;6.75;;;4.05;;
36351;SDS011;22382;44.768;17.206;2023-04-30T04:54:13;6.65;;;4.13;;
36351;SDS011;22382;44.768;17.206;2023-04-30T04:56:41;7.35;;;4.03;;
36351;SDS011;22382;44.768;17.206;2023-04-30T04:59:08;5.35;;;3.80;;
36351;SDS011;22382;44.768;17.206;2023-04-30T05:01:35;5.85;;;4.03;;
36351;SDS011;22382;44.768;17.206;2023-04-30T05:04:03;4.85;;;3.92;;
36351;SDS011;22382;44.768;17.206;2023-04-30T05:06:30;5.65;;;4.03;;
36351;SDS011;22382;44.768;17.206;2023-04-30T05:08:57;6.15;;;4.38;;
36351;SDS011;22382;44.768;17.206;2023-04-30T05:11:25;5.53;;;4.00;;
36351;SDS011;22382;44.768;17.206;2023-04-30T05:13:52;5.97;;;3.85;;
36351;SDS011;22382;44.768;17.206;2023-04-30T05:16:19;5.70;;;3.63;;
36351;SDS011;22382;44.768;17.206;2023-04-30T05:18:46;5.15;;;3.75;;
36351;SDS011;22382;44.768;17.206;2023-04-30T05:21:13;7.78;;;3.88;;
36351;SDS011;22382;44.768;17.206;2023-04-30T05:23:40;5.72;;;3.97;;
36351;SDS011;22382;44.768;17.206;2023-04-30T05:26:08;5.13;;;3.65;;
36351;SDS011;22382;44.768;17.206;2023-04-30T05:28:35;6.10;;;4.10;;
36351;SDS011;22382;44.768;17.206;2023-04-30T05:31:02;5.15;;;3.85;;
36351;SDS011;22382;44.768;17.206;2023-04-30T05:33:29;6.20;;;4.00;;
36351;SDS011;22382;44.768;17.206;2023-04-30T05:35:56;7.63;;;4.15;;
36351;SDS011;22382;44.768;17.206;2023-04-30T05:38:23;6.60;;;4.00;;
36351;SDS011;22382;44.768;17.206;2023-04-30T05:40:51;4.43;;;3.70;;
36351;SDS011;22382;44.768;17.206;2023-04-30T05:43:18;5.22;;;3.60;;
36351;SDS011;22382;44.768;17.206;2023-04-30T05:45:45;5.55;;;4.03;;
36351;SDS011;22382;44.768;17.206;2023-04-30T05:48:12;6.93;;;4.15;;
36351;SDS011;22382;44.768;17.206;2023-04-30T05:50:39;6.10;;;3.25;;
36351;SDS011;22382;44.768;17.206;2023-04-30T05:53:06;6.47;;;4.32;;
36351;SDS011;22382;44.768;17.206;2023-04-30T05:55:34;6.60;;;3.95;;
36351;SDS011;22382;44.768;17.206;2023-04-30T05:58:01;5.50;;;3.97;;
36351;SDS011;22382;44.768;17.206;2023-04-30T06:00:29;9.52;;;3.35;;
36351;SDS011;22382;44.768;17.206;2023-04-30T06:02:56;5.95;;;3.60;;
36351;SDS011;22382;44.768;17.206;2023-04-30T06:05:24;5.70;;;3.75;;
36351;SDS011;22382;44.768;17.206;2023-04-30T06:07:51;5.50;;;3.20;;
36351;SDS011;22382;44.768;17.206;2023-04-30T06:10:18;5.53;;;3.63;;
36351;SDS011;22382;44.768;17.206;2023-04-30T06:12:46;7.22;;;3.72;;
36351;SDS011;22382;44.768;17.206;2023-04-30T06:15:14;5.10;;;3.22;;
36351;SDS011;22382;44.768;17.206;2023-04-30T06:17:41;5.35;;;3.58;;
36351;SDS011;22382;44.768;17.206;2023-04-30T06:20:08;4.40;;;3.15;;
36351;SDS011;22382;44.768;17.206;2023-04-30T06:22:36;5.13;;;3.40;;
36351;SDS011;22382;44.768;17.206;2023-04-30T06:25:03;5.63;;;3.17;;
36351;SDS011;22382;44.768;17.206;2023-04-30T06:27:31;5.53;;;3.67;;
36351;SDS011;22382;44.768;17.206;2023-04-30T06:29:59;5.70;;;2.90;;
36351;SDS011;22382;44.768;17.206;2023-04-30T06:32:26;4.22;;;3.33;;
36351;SDS011;22382;44.768;17.206;2023-04-30T06:34:54;3.63;;;2.80;;
36351;SDS011;22382;44.768;17.206;2023-04-30T06:37:21;4.10;;;2.75;;
36351;SDS011;22382;44.768;17.206;2023-04-30T06:39:49;6.40;;;2.95;;
36351;SDS011;22382;44.768;17.206;2023-04-30T06:42:17;4.28;;;2.22;;
36351;SDS011;22382;44.768;17.206;2023-04-30T06:44:44;3.90;;;2.50;;
36351;SDS011;22382;44.768;17.206;2023-04-30T06:47:12;4.80;;;2.53;;
36351;SDS011;22382;44.768;17.206;2023-04-30T06:49:40;3.72;;;2.70;;
36351;SDS011;22382;44.768;17.206;2023-04-30T06:52:08;4.90;;;2.53;;
36351;SDS011;22382;44.768;17.206;2023-04-30T06:54:35;3.58;;;2.65;;
36351;SDS011;22382;44.768;17.206;2023-04-30T06:57:02;4.43;;;2.75;;
36351;SDS011;22382;44.768;17.206;2023-04-30T06:59:29;4.03;;;2.78;;
36351;SDS011;22382;44.768;17.206;2023-04-30T07:01:56;4.93;;;3.10;;
36351;SDS011;22382;44.768;17.206;2023-04-30T07:04:24;4.88;;;3.80;;
36351;SDS011;22382;44.768;17.206;2023-04-30T07:06:52;5.68;;;4.07;;
36351;SDS011;22382;44.768;17.206;2023-04-30T07:09:20;6.40;;;4.05;;
36351;SDS011;22382;44.768;17.206;2023-04-30T07:11:47;3.63;;;2.70;;
36351;SDS011;22382;44.768;17.206;2023-04-30T07:14:15;4.88;;;3.42;;
36351;SDS011;22382;44.768;17.206;2023-04-30T07:16:42;8.50;;;3.65;;
36351;SDS011;22382;44.768;17.206;2023-04-30T07:19:11;6.63;;;4.53;;
36351;SDS011;22382;44.768;17.206;2023-04-30T07:21:38;9.18;;;4.20;;
36351;SDS011;22382;44.768;17.206;2023-04-30T07:24:05;5.30;;;3.60;;
36351;SDS011;22382;44.768;17.206;2023-04-30T07:26:33;5.18;;;3.67;;
36351;SDS011;22382;44.768;17.206;2023-04-30T07:29:01;6.20;;;4.55;;
36351;SDS011;22382;44.768;17.206;2023-04-30T07:31:29;7.97;;;5.40;;
36351;SDS011;22382;44.768;17.206;2023-04-30T07:33:56;7.32;;;3.40;;
36351;SDS011;22382;44.768;17.206;2023-04-30T07:36:24;4.68;;;3.03;;
36351;SDS011;22382;44.768;17.206;2023-04-30T07:38:55;4.90;;;2.97;;
36351;SDS011;22382;44.768;17.206;2023-04-30T07:41:23;5.28;;;2.97;;
36351;SDS011;22382;44.768;17.206;2023-04-30T07:43:51;7.40;;;4.82;;
36351;SDS011;22382;44.768;17.206;2023-04-30T07:46:18;5.13;;;2.72;;
36351;SDS011;22382;44.768;17.206;2023-04-30T07:48:45;5.18;;;3.83;;
36351;SDS011;22382;44.768;17.206;2023-04-30T07:51:13;5.10;;;3.30;;
36351;SDS011;22382;44.768;17.206;2023-04-30T07:53:45;2.95;;;2.65;;
36351;SDS011;22382;44.768;17.206;2023-04-30T07:56:16;4.13;;;2.50;;
36351;SDS011;22382;44.768;17.206;2023-04-30T07:58:44;2.90;;;2.13;;
36351;SDS011;22382;44.768;17.206;2023-04-30T08:01:11;2.53;;;1.50;;
36351;SDS011;22382;44.768;17.206;2023-04-30T08:03:38;4.57;;;3.58;;
36351;SDS011;22382;44.768;17.206;2023-04-30T08:06:06;4.68;;;3.88;;
36351;SDS011;22382;44.768;17.206;2023-04-30T08:08:33;9.77;;;2.00;;
36351;SDS011;22382;44.768;17.206;2023-04-30T08:11:00;2.20;;;1.48;;
36351;SDS011;22382;44.768;17.206;2023-04-30T08:13:28;2.42;;;1.30;;
36351;SDS011;22382;44.768;17.206;2023-04-30T08:15:56;1.92;;;1.30;;
36351;SDS011;22382;44.768;17.206;2023-04-30T08:18:28;1.92;;;1.40;;
36351;SDS011;22382;44.768;17.206;2023-04-30T08:21:00;1.73;;;1.10;;
36351;SDS011;22382;44.768;17.206;2023-04-30T08:23:28;2.55;;;1.90;;
36351;SDS011;22382;44.768;17.206;2023-04-30T08:25:55;3.45;;;1.80;;
36351;SDS011;22382;44.768;17.206;2023-04-30T08:28:22;2.50;;;1.65;;
36351;SDS011;22382;44.768;17.206;2023-04-30T08:30:50;3.78;;;2.70;;
36351;SDS011;22382;44.768;17.206;2023-04-30T08:33:17;2.20;;;1.30;;
36351;SDS011;22382;44.768;17.206;2023-04-30T08:35:45;5.53;;;4.13;;
36351;SDS011;22382;44.768;17.206;2023-04-30T08:38:12;4.43;;;3.38;;
36351;SDS011;22382;44.768;17.206;2023-04-30T08:40:40;4.63;;;2.20;;
36351;SDS011;22382;44.768;17.206;2023-04-30T08:43:17;9.18;;;6.03;;
36351;SDS011;22382;44.768;17.206;2023-04-30T08:45:45;5.18;;;4.20;;
36351;SDS011;22382;44.768;17.206;2023-04-30T08:48:14;6.75;;;5.30;;
36351;SDS011;22382;44.768;17.206;2023-04-30T08:50:42;3.58;;;2.00;;
36351;SDS011;22382;44.768;17.206;2023-04-30T08:53:11;2.42;;;1.90;;
36351;SDS011;22382;44.768;17.206;2023-04-30T08:55:41;3.35;;;2.60;;
36351;SDS011;22382;44.768;17.206;2023-04-30T08:58:08;5.13;;;3.00;;
36351;SDS011;22382;44.768;17.206;2023-04-30T09:00:38;2.53;;;1.98;;
36351;SDS011;22382;44.768;17.206;2023-04-30T09:03:06;3.53;;;1.80;;
36351;SDS011;22382;44.768;17.206;2023-04-30T09:05:35;6.00;;;3.85;;
36351;SDS011;22382;44.768;17.206;2023-04-30T09:08:04;3.55;;;2.97;;
36351;SDS011;22382;44.768;17.206;2023-04-30T09:10:34;4.90;;;2.85;;
36351;SDS011;22382;44.768;17.206;2023-04-30T09:13:04;3.17;;;2.40;;
36351;SDS011;22382;44.768;17.206;2023-04-30T09:15:35;3.45;;;2.35;;
36351;SDS011;22382;44.768;17.206;2023-04-30T09:20:37;2.45;;;1.80;;
36351;SDS011;22382;44.768;17.206;2023-04-30T09:23:07;1.95;;;1.40;;
36351;SDS011;22382;44.768;17.206;2023-04-30T09:25:39;4.28;;;1.40;;
36351;SDS011;22382;44.768;17.206;2023-04-30T09:28:11;4.13;;;1.85;;
36351;SDS011;22382;44.768;17.206;2023-04-30T09:30:39;3.58;;;2.40;;
36351;SDS011;22382;44.768;17.206;2023-04-30T09:33:07;4.25;;;2.78;;
36351;SDS011;22382;44.768;17.206;2023-04-30T09:35:38;3.28;;;2.08;;
36351;SDS011;22382;44.768;17.206;2023-04-30T09:38:07;2.63;;;1.90;;
36351;SDS011;22382;44.768;17.206;2023-04-30T09:40:58;3.08;;;2.10;;
36351;SDS011;22382;44.768;17.206;2023-04-30T09:43:27;5.38;;;2.03;;
36351;SDS011;22382;44.768;17.206;2023-04-30T09:45:56;2.42;;;1.85;;
36351;SDS011;22382;44.768;17.206;2023-04-30T09:48:25;5.60;;;2.60;;
36351;SDS011;22382;44.768;17.206;2023-04-30T09:50:56;4.95;;;3.10;;
36351;SDS011;22382;44.768;17.206;2023-04-30T09:53:25;5.43;;;3.00;;
36351;SDS011;22382;44.768;17.206;2023-04-30T09:55:53;4.90;;;2.83;;
36351;SDS011;22382;44.768;17.206;2023-04-30T09:58:23;4.63;;;2.70;;
36351;SDS011;22382;44.768;17.206;2023-04-30T10:00:54;6.78;;;2.90;;
36351;SDS011;22382;44.768;17.206;2023-04-30T10:03:24;4.07;;;2.70;;
36351;SDS011;22382;44.768;17.206;2023-04-30T10:05:52;3.50;;;2.58;;
36351;SDS011;22382;44.768;17.206;2023-04-30T10:08:25;4.55;;;2.40;;
36351;SDS011;22382;44.768;17.206;2023-04-30T10:10:58;3.20;;;2.50;;
36351;SDS011;22382;44.768;17.206;2023-04-30T10:13:40;4.95;;;3.00;;
36351;SDS011;22382;44.768;17.206;2023-04-30T10:16:14;4.17;;;2.73;;
36351;SDS011;22382;44.768;17.206;2023-04-30T10:19:02;3.80;;;2.83;;
36351;SDS011;22382;44.768;17.206;2023-04-30T10:21:45;2.70;;;2.17;;
36351;SDS011;22382;44.768;17.206;2023-04-30T10:24:13;3.53;;;1.85;;
36351;SDS011;22382;44.768;17.206;2023-04-30T10:26:41;4.18;;;1.92;;
36351;SDS011;22382;44.768;17.206;2023-04-30T10:29:10;4.13;;;2.35;;
36351;SDS011;22382;44.768;17.206;2023-04-30T10:31:40;5.03;;;1.83;;
36351;SDS011;22382;44.768;17.206;2023-04-30T10:40:11;1.55;;;1.20;;
36351;SDS011;22382;44.768;17.206;2023-04-30T10:42:52;3.05;;;1.40;;
36351;SDS011;22382;44.768;17.206;2023-04-30T10:45:36;3.63;;;1.30;;
36351;SDS011;22382;44.768;17.206;2023-04-30T10:48:07;2.33;;;1.20;;
36351;SDS011;22382;44.768;17.206;2023-04-30T10:50:54;1.88;;;1.10;;
36351;SDS011;22382;44.768;17.206;2023-04-30T10:53:22;3.67;;;1.50;;
36351;SDS011;22382;44.768;17.206;2023-04-30T10:55:52;2.65;;;1.40;;
36351;SDS011;22382;44.768;17.206;2023-04-30T11:03:34;2.85;;;1.45;;
36351;SDS011;22382;44.768;17.206;2023-04-30T11:06:12;2.95;;;1.73;;
36351;SDS011;22382;44.768;17.206;2023-04-30T11:08:43;2.58;;;1.83;;
36351;SDS011;22382;44.768;17.206;2023-04-30T11:11:18;3.95;;;1.90;;
36351;SDS011;22382;44.768;17.206;2023-04-30T11:13:47;1.77;;;1.60;;
36351;SDS011;22382;44.768;17.206;2023-04-30T11:16:32;1.95;;;1.30;;
36351;SDS011;22382;44.768;17.206;2023-04-30T11:19:10;2.08;;;1.80;;
36351;SDS011;22382;44.768;17.206;2023-04-30T11:27:20;2.70;;;1.42;;
36351;SDS011;22382;44.768;17.206;2023-04-30T11:29:52;2.88;;;1.80;;
36351;SDS011;22382;44.768;17.206;2023-04-30T11:32:22;5.00;;;1.73;;
36351;SDS011;22382;44.768;17.206;2023-04-30T11:34:51;3.40;;;1.85;;
36351;SDS011;22382;44.768;17.206;2023-04-30T11:39:56;4.18;;;1.70;;
36351;SDS011;22382;44.768;17.206;2023-04-30T11:42:33;4.60;;;2.08;;
36351;SDS011;22382;44.768;17.206;2023-04-30T11:45:13;4.25;;;2.72;;
36351;SDS011;22382;44.768;17.206;2023-04-30T11:47:48;4.70;;;2.95;;
36351;SDS011;22382;44.768;17.206;2023-04-30T11:50:25;3.28;;;2.70;;
36351;SDS011;22382;44.768;17.206;2023-04-30T11:53:08;4.45;;;2.95;;
36351;SDS011;22382;44.768;17.206;2023-04-30T11:55:43;2.95;;;2.10;;
36351;SDS011;22382;44.768;17.206;2023-04-30T11:58:14;3.95;;;2.15;;
36351;SDS011;22382;44.768;17.206;2023-04-30T12:00:42;3.78;;;2.53;;
36351;SDS011;22382;44.768;17.206;2023-04-30T12:03:10;4.38;;;2.60;;
36351;SDS011;22382;44.768;17.206;2023-04-30T12:05:46;3.53;;;2.28;;
36351;SDS011;22382;44.768;17.206;2023-04-30T12:08:14;6.18;;;3.50;;
36351;SDS011;22382;44.768;17.206;2023-04-30T12:10:44;4.72;;;3.05;;
36351;SDS011;22382;44.768;17.206;2023-04-30T12:13:14;6.22;;;2.72;;
36351;SDS011;22382;44.768;17.206;2023-04-30T12:15:42;9.68;;;4.15;;
36351;SDS011;22382;44.768;17.206;2023-04-30T12:18:25;3.08;;;2.78;;
36351;SDS011;22382;44.768;17.206;2023-04-30T12:20:53;4.95;;;3.03;;
36351;SDS011;22382;44.768;17.206;2023-04-30T12:23:20;5.15;;;3.13;;
36351;SDS011;22382;44.768;17.206;2023-04-30T12:25:48;3.65;;;2.30;;
36351;SDS011;22382;44.768;17.206;2023-04-30T12:28:22;3.67;;;2.47;;
36351;SDS011;22382;44.768;17.206;2023-04-30T12:30:49;5.25;;;3.80;;
36351;SDS011;22382;44.768;17.206;2023-04-30T12:33:19;5.80;;;2.88;;
36351;SDS011;22382;44.768;17.206;2023-04-30T12:35:46;3.38;;;2.03;;
36351;SDS011;22382;44.768;17.206;2023-04-30T12:38:15;4.10;;;2.70;;
36351;SDS011;22382;44.768;17.206;2023-04-30T12:40:46;4.05;;;2.90;;
36351;SDS011;22382;44.768;17.206;2023-04-30T12:43:15;11.88;;;3.00;;
36351;SDS011;22382;44.768;17.206;2023-04-30T12:48:18;7.15;;;5.15;;
36351;SDS011;22382;44.768;17.206;2023-04-30T12:50:54;6.38;;;4.57;;
36351;SDS011;22382;44.768;17.206;2023-04-30T12:53:25;5.00;;;3.13;;
36351;SDS011;22382;44.768;17.206;2023-04-30T12:56:09;3.35;;;2.47;;
36351;SDS011;22382;44.768;17.206;2023-04-30T12:58:39;5.80;;;4.00;;
36351;SDS011;22382;44.768;17.206;2023-04-30T13:01:10;6.95;;;3.80;;
36351;SDS011;22382;44.768;17.206;2023-04-30T13:03:38;6.50;;;4.50;;
36351;SDS011;22382;44.768;17.206;2023-04-30T13:06:07;4.60;;;3.25;;
36351;SDS011;22382;44.768;17.206;2023-04-30T13:08:35;5.88;;;3.35;;
36351;SDS011;22382;44.768;17.206;2023-04-30T13:11:21;3.75;;;2.60;;
36351;SDS011;22382;44.768;17.206;2023-04-30T13:13:52;4.00;;;2.72;;
36351;SDS011;22382;44.768;17.206;2023-04-30T13:16:23;10.13;;;4.93;;
36351;SDS011;22382;44.768;17.206;2023-04-30T13:18:51;5.32;;;3.42;;
36351;SDS011;22382;44.768;17.206;2023-04-30T13:21:18;5.50;;;3.20;;
36351;SDS011;22382;44.768;17.206;2023-04-30T13:23:46;6.72;;;3.10;;
36351;SDS011;22382;44.768;17.206;2023-04-30T13:28:47;4.70;;;3.17;;
36351;SDS011;22382;44.768;17.206;2023-04-30T13:31:14;4.25;;;3.08;;
36351;SDS011;22382;44.768;17.206;2023-04-30T13:33:41;8.95;;;3.75;;
36351;SDS011;22382;44.768;17.206;2023-04-30T13:36:09;6.50;;;4.20;;
36351;SDS011;22382;44.768;17.206;2023-04-30T13:38:36;6.35;;;3.58;;
36351;SDS011;22382;44.768;17.206;2023-04-30T13:41:04;5.28;;;3.50;;
36351;SDS011;22382;44.768;17.206;2023-04-30T13:43:32;4.82;;;3.58;;
36351;SDS011;22382;44.768;17.206;2023-04-30T13:45:59;10.20;;;5.15;;
36351;SDS011;22382;44.768;17.206;2023-04-30T13:48:27;4.70;;;3.35;;
36351;SDS011;22382;44.768;17.206;2023-04-30T13:50:54;4.85;;;3.25;;
36351;SDS011;22382;44.768;17.206;2023-04-30T13:53:21;3.90;;;3.10;;
36351;SDS011;22382;44.768;17.206;2023-04-30T13:55:49;5.22;;;3.08;;
36351;SDS011;22382;44.768;17.206;2023-04-30T13:58:16;5.03;;;3.30;;
36351;SDS011;22382;44.768;17.206;2023-04-30T14:00:43;7.60;;;5.68;;
36351;SDS011;22382;44.768;17.206;2023-04-30T14:03:11;8.73;;;5.75;;
36351;SDS011;22382;44.768;17.206;2023-04-30T14:05:39;5.60;;;4.53;;
36351;SDS011;22382;44.768;17.206;2023-04-30T14:08:06;6.70;;;3.72;;
36351;SDS011;22382;44.768;17.206;2023-04-30T14:10:34;4.55;;;3.28;;
36351;SDS011;22382;44.768;17.206;2023-04-30T14:13:01;5.75;;;4.03;;
36351;SDS011;22382;44.768;17.206;2023-04-30T14:15:28;9.15;;;5.82;;
36351;SDS011;22382;44.768;17.206;2023-04-30T14:17:57;6.53;;;4.22;;
36351;SDS011;22382;44.768;17.206;2023-04-30T14:20:26;16.35;;;11.50;;
36351;SDS011;22382;44.768;17.206;2023-04-30T14:22:53;8.75;;;6.68;;
36351;SDS011;22382;44.768;17.206;2023-04-30T14:25:20;14.23;;;10.05;;
36351;SDS011;22382;44.768;17.206;2023-04-30T14:27:47;7.45;;;4.25;;
36351;SDS011;22382;44.768;17.206;2023-04-30T14:30:14;6.43;;;3.78;;
36351;SDS011;22382;44.768;17.206;2023-04-30T14:32:41;4.57;;;3.25;;
36351;SDS011;22382;44.768;17.206;2023-04-30T14:35:09;5.30;;;3.33;;
36351;SDS011;22382;44.768;17.206;2023-04-30T14:37:36;3.75;;;3.25;;
36351;SDS011;22382;44.768;17.206;2023-04-30T14:40:04;6.57;;;3.65;;
36351;SDS011;22382;44.768;17.206;2023-04-30T14:42:33;7.35;;;3.60;;
36351;SDS011;22382;44.768;17.206;2023-04-30T14:45:00;6.68;;;4.00;;
36351;SDS011;22382;44.768;17.206;2023-04-30T14:47:27;5.88;;;3.63;;
36351;SDS011;22382;44.768;17.206;2023-04-30T14:49:57;5.28;;;3.15;;
36351;SDS011;22382;44.768;17.206;2023-04-30T14:52:24;4.25;;;2.67;;
36351;SDS011;22382;44.768;17.206;2023-04-30T14:54:51;4.38;;;2.45;;
36351;SDS011;22382;44.768;17.206;2023-04-30T14:57:18;3.42;;;2.60;;
36351;SDS011;22382;44.768;17.206;2023-04-30T14:59:46;9.25;;;7.68;;
36351;SDS011;22382;44.768;17.206;2023-04-30T15:02:13;9.75;;;7.05;;
36351;SDS011;22382;44.768;17.206;2023-04-30T15:04:41;7.82;;;5.55;;
36351;SDS011;22382;44.768;17.206;2023-04-30T15:07:11;8.63;;;4.85;;
36351;SDS011;22382;44.768;17.206;2023-04-30T15:09:38;5.35;;;3.95;;
36351;SDS011;22382;44.768;17.206;2023-04-30T15:12:06;7.07;;;3.80;;
36351;SDS011;22382;44.768;17.206;2023-04-30T15:14:33;5.15;;;3.25;;
36351;SDS011;22382;44.768;17.206;2023-04-30T15:17:02;6.20;;;3.50;;
36351;SDS011;22382;44.768;17.206;2023-04-30T15:19:29;4.63;;;2.85;;
36351;SDS011;22382;44.768;17.206;2023-04-30T15:21:56;7.68;;;3.80;;
36351;SDS011;22382;44.768;17.206;2023-04-30T15:24:23;8.35;;;4.43;;
36351;SDS011;22382;44.768;17.206;2023-04-30T15:26:51;8.10;;;4.13;;
36351;SDS011;22382;44.768;17.206;2023-04-30T15:29:20;7.72;;;4.28;;
36351;SDS011;22382;44.768;17.206;2023-04-30T15:31:47;6.20;;;3.80;;
36351;SDS011;22382;44.768;17.206;2023-04-30T15:34:19;5.68;;;3.53;;